CPX786 Details

Departure: Kingsford Smith International Airport (YSSY)
Arrival: Chek Lap Kok International (VHHH) at N/A
Route: RIC H202 AGETA R340 AMN A461 ZAM A583 SABNO V541 DOVAR V541 BETTY
Notes:


Current Weather Information
YSSY 230800Z 05013KT 9999 FEW030 22/16 Q1017 NOSIG
VHHH 230800Z 12007KT 080V220 9999 FEW030 28/18 Q1010 NOSIG